Time;durP1;ratioP1;P1;durP2;ratioP2;P2;SDS_P1;SDS_P2;PMS_P1;PMS_P2;Temp;Humidity;BMP_temperature;BMP_pressure;BME280_temperature;BME280_humidity;BME280_pressure;Samples;Min_cycle;Max_cycle;Signal;HPM_P1;HPM_P2
2022/11/24 00:01:39;;;;;;;25.92;15.00;;;;;;;;;;6185146;23;19997;-33
2022/11/24 00:04:05;;;;;;;24.58;14.50;;;;;;;;;;6185254;23;20004;-33
2022/11/24 00:06:31;;;;;;;26.65;15.10;;;;;;;;;;6185159;23;20059;-33
2022/11/24 00:08:57;;;;;;;23.38;12.73;;;;;;;;;;6184865;23;19989;-33
2022/11/24 00:11:26;;;;;;;22.20;12.68;;;;;;;;;;6185333;23;20001;-33
2022/11/24 00:13:51;;;;;;;;;;;;;;;;;;6159034;23;20353;-33
2022/11/24 00:16:16;;;;;;;25.20;12.90;;;;;;;;;;6184847;23;19912;-33
2022/11/24 00:18:42;;;;;;;27.87;14.93;;;;;;;;;;6185093;23;20076;-33
2022/11/24 00:21:08;;;;;;;28.35;14.75;;;;;;;;;;6185048;23;20314;-33
2022/11/24 00:23:33;;;;;;;27.45;15.10;;;;;;;;;;6184865;23;20004;-33
2022/11/24 00:26:02;;;;;;;27.45;14.48;;;;;;;;;;6184971;23;20035;-33
2022/11/24 00:28:28;;;;;;;28.15;15.18;;;;;;;;;;6184948;23;20001;-33
2022/11/24 00:30:53;;;;;;;27.45;15.38;;;;;;;;;;6184990;23;20008;-33
2022/11/24 00:33:18;;;;;;;28.80;15.40;;;;;;;;;;6184483;23;20028;-33
2022/11/24 00:35:43;;;;;;;31.10;15.35;;;;;;;;;;6185181;23;20199;-33
2022/11/24 00:38:09;;;;;;;30.58;16.63;;;;;;;;;;6184892;23;20310;-33
2022/11/24 00:40:34;;;;;;;29.45;16.08;;;;;;;;;;6184944;23;20052;-33
2022/11/24 00:42:59;;;;;;;31.58;16.52;;;;;;;;;;6185078;23;19993;-33
2022/11/24 00:45:24;;;;;;;31.42;16.67;;;;;;;;;;6184745;23;20005;-33
2022/11/24 00:47:49;;;;;;;32.65;15.85;;;;;;;;;;6184586;23;20048;-33
2022/11/24 00:50:15;;;;;;;29.50;15.83;;;;;;;;;;6185102;23;20036;-33
2022/11/24 00:52:40;;;;;;;29.02;15.38;;;;;;;;;;6184841;23;20206;-33
2022/11/24 00:55:06;;;;;;;32.17;15.80;;;;;;;;;;6184927;23;20080;-33
2022/11/24 00:57:33;;;;;;;30.50;15.55;;;;;;;;;;6184832;23;20413;-33
2022/11/24 00:59:58;;;;;;;31.17;17.00;;;;;;;;;;6185095;23;19996;-33
2022/11/24 01:02:23;;;;;;;30.53;16.93;;;;;;;;;;6184892;23;20421;-33
2022/11/24 01:04:49;;;;;;;30.95;15.88;;;;;;;;;;6185049;23;20462;-33
2022/11/24 01:07:14;;;;;;;29.58;16.45;;;;;;;;;;6184535;23;20091;-33
2022/11/24 01:09:42;;;;;;;30.40;17.40;;;;;;;;;;6184844;23;20000;-33
2022/11/24 01:12:07;;;;;;;30.58;16.08;;;;;;;;;;6184888;23;20076;-33
2022/11/24 01:14:33;;;;;;;31.75;16.38;;;;;;;;;;6184501;23;20020;-33
2022/11/24 01:16:58;;;;;;;36.65;17.73;;;;;;;;;;6184461;23;20093;-33
2022/11/24 01:19:23;;;;;;;34.75;17.95;;;;;;;;;;6158474;23;20409;-33
2022/11/24 01:21:49;;;;;;;30.52;16.25;;;;;;;;;;6186005;23;20001;-33
2022/11/24 01:24:14;;;;;;;30.38;16.63;;;;;;;;;;6186422;23;20043;-33
2022/11/24 01:26:40;;;;;;;31.85;16.60;;;;;;;;;;6160045;23;20009;-33
2022/11/24 01:29:05;;;;;;;35.67;18.58;;;;;;;;;;6186457;23;20083;-33
2022/11/24 01:31:31;;;;;;;30.40;17.27;;;;;;;;;;6186065;23;20420;-33
2022/11/24 01:33:57;;;;;;;28.75;15.93;;;;;;;;;;6186603;23;20028;-32
2022/11/24 01:36:22;;;;;;;29.85;16.77;;;;;;;;;;6186386;23;20405;-33
2022/11/24 01:38:47;;;;;;;31.77;16.98;;;;;;;;;;6186253;23;19997;-33
2022/11/24 01:41:13;;;;;;;30.75;16.88;;;;;;;;;;6186416;23;20128;-33
2022/11/24 01:43:39;;;;;;;31.17;16.97;;;;;;;;;;6185864;23;19997;-33
2022/11/24 01:46:10;;;;;;;29.67;17.13;;;;;;;;;;6186261;23;20251;-33
2022/11/24 01:48:37;;;;;;;30.33;17.13;;;;;;;;;;6185984;23;20007;-33
2022/11/24 01:51:12;;;;;;;34.65;17.65;;;;;;;;;;6186253;23;20360;-33
2022/11/24 01:53:40;;;;;;;31.75;16.80;;;;;;;;;;6186290;23;20024;-33
2022/11/24 01:56:06;;;;;;;31.17;16.93;;;;;;;;;;6186349;23;19996;-33
2022/11/24 01:58:33;;;;;;;33.25;16.45;;;;;;;;;;6159763;23;19997;-32
2022/11/24 02:00:58;;;;;;;28.25;16.20;;;;;;;;;;6186344;23;19997;-33
2022/11/24 02:03:25;;;;;;;29.38;16.67;;;;;;;;;;6186310;23;20431;-33
2022/11/24 02:06:17;;;;;;;27.05;15.70;;;;;;;;;;6186094;23;20008;-33
2022/11/24 02:08:48;;;;;;;27.88;15.00;;;;;;;;;;6178500;23;20064;-33
2022/11/24 02:11:14;;;;;;;27.13;15.57;;;;;;;;;;6186281;23;20020;-33
2022/11/24 02:13:40;;;;;;;27.48;15.15;;;;;;;;;;6186002;23;20000;-33
2022/11/24 02:16:09;;;;;;;25.15;15.02;;;;;;;;;;6185931;23;20095;-33
2022/11/24 02:18:35;;;;;;;25.48;15.40;;;;;;;;;;6186004;23;19997;-33
2022/11/24 02:21:01;;;;;;;26.23;14.18;;;;;;;;;;6185556;23;20016;-33
2022/11/24 02:23:46;;;;;;;26.55;15.23;;;;;;;;;;6186121;23;20402;-33
2022/11/24 02:26:20;;;;;;;23.02;14.48;;;;;;;;;;6157896;23;20013;-33
2022/11/24 02:28:45;;;;;;;26.75;14.82;;;;;;;;;;6185957;23;20112;-33
2022/11/24 02:31:11;;;;;;;25.25;15.23;;;;;;;;;;6159658;23;20309;-33
2022/11/24 02:33:36;;;;;;;24.48;14.48;;;;;;;;;;6185525;23;20425;-33
2022/11/24 02:36:01;;;;;;;26.65;14.82;;;;;;;;;;6186125;23;20047;-33
2022/11/24 02:38:31;;;;;;;23.50;13.95;;;;;;;;;;6185841;23;20017;-33
2022/11/24 02:40:57;;;;;;;23.88;13.73;;;;;;;;;;6185865;23;19993;-33
2022/11/24 02:43:23;;;;;;;25.73;14.50;;;;;;;;;;6185688;23;19993;-33
2022/11/24 02:45:48;;;;;;;25.83;13.85;;;;;;;;;;6185642;23;20016;-33
2022/11/24 02:48:14;;;;;;;24.00;14.18;;;;;;;;;;6185743;23;19993;-33
2022/11/24 02:50:39;;;;;;;24.95;14.18;;;;;;;;;;6186000;23;19999;-33
2022/11/24 02:53:05;;;;;;;27.48;15.15;;;;;;;;;;6185814;23;19992;-33
2022/11/24 02:55:30;;;;;;;25.08;13.43;;;;;;;;;;6185465;23;20000;-33
2022/11/24 02:57:55;;;;;;;27.10;14.75;;;;;;;;;;6185627;23;20008;-33
2022/11/24 03:00:21;;;;;;;24.33;14.43;;;;;;;;;;6185794;23;19997;-33
2022/11/24 03:02:46;;;;;;;25.00;14.32;;;;;;;;;;6185810;23;19997;-33
2022/11/24 03:05:12;;;;;;;24.52;14.38;;;;;;;;;;6185270;23;20020;-32
2022/11/24 03:07:37;;;;;;;23.33;14.48;;;;;;;;;;6182991;23;20029;-33
2022/11/24 03:10:02;;;;;;;21.83;13.43;;;;;;;;;;6185465;23;20024;-33
2022/11/24 03:12:28;;;;;;;25.02;14.85;;;;;;;;;;6185670;23;19996;-32
2022/11/24 03:14:53;;;;;;;25.52;13.95;;;;;;;;;;6185367;23;19997;-33
2022/11/24 03:17:18;;;;;;;24.48;14.15;;;;;;;;;;6185539;23;20043;-33
2022/11/24 03:19:43;;;;;;;26.02;14.90;;;;;;;;;;6185091;23;20000;-33
2022/11/24 03:22:10;;;;;;;30.73;15.32;;;;;;;;;;6185480;23;20043;-33
2022/11/24 03:24:37;;;;;;;26.95;15.40;;;;;;;;;;6185488;23;19997;-32
2022/11/24 03:27:02;;;;;;;27.30;15.20;;;;;;;;;;6185169;23;20015;-33
2022/11/24 03:29:27;;;;;;;29.63;15.20;;;;;;;;;;6185524;23;20071;-33
2022/11/24 03:31:52;;;;;;;33.35;15.43;;;;;;;;;;6185392;23;20052;-32
2022/11/24 03:34:18;;;;;;;26.90;14.98;;;;;;;;;;6185264;23;20024;-33
2022/11/24 03:36:46;;;;;;;30.75;16.20;;;;;;;;;;6184958;23;20031;-33
2022/11/24 03:39:12;;;;;;;32.28;16.25;;;;;;;;;;6185510;23;20072;-33
2022/11/24 03:41:37;;;;;;;28.38;14.88;;;;;;;;;;6185210;23;19993;-33
2022/11/24 03:44:03;;;;;;;31.05;16.23;;;;;;;;;;6185228;23;20016;-33
2022/11/24 03:46:28;;;;;;;31.88;15.82;;;;;;;;;;6185235;23;20444;-32
2022/11/24 03:48:53;;;;;;;35.13;17.33;;;;;;;;;;6185259;23;19993;-33
2022/11/24 03:51:18;;;;;;;31.52;15.80;;;;;;;;;;6185358;23;20060;-33
2022/11/24 03:53:43;;;;;;;34.50;16.80;;;;;;;;;;6185201;23;19997;-32
2022/11/24 03:56:09;;;;;;;30.50;15.90;;;;;;;;;;6158743;23;20059;-33
2022/11/24 03:58:34;;;;;;;32.70;17.42;;;;;;;;;;6185111;23;20418;-33
2022/11/24 04:00:59;;;;;;;36.20;19.00;;;;;;;;;;6185130;23;19993;-32
2022/11/24 04:03:25;;;;;;;38.50;17.38;;;;;;;;;;6185003;23;20047;-33
2022/11/24 04:05:50;;;;;;;38.47;18.58;;;;;;;;;;6185198;23;20015;-33
2022/11/24 04:08:16;;;;;;;35.47;17.60;;;;;;;;;;6158817;23;20353;-33
2022/11/24 04:10:42;;;;;;;46.58;19.85;;;;;;;;;;6185114;23;19997;-33
2022/11/24 04:13:10;;;;;;;40.55;19.10;;;;;;;;;;6184786;23;19997;-33
2022/11/24 04:15:37;;;;;;;51.78;21.05;;;;;;;;;;6184680;23;20028;-33
2022/11/24 04:18:02;;;;;;;51.42;21.52;;;;;;;;;;6185160;23;20426;-32
2022/11/24 04:20:27;;;;;;;50.67;23.00;;;;;;;;;;6184633;23;20050;-32
2022/11/24 04:22:52;;;;;;;48.03;21.80;;;;;;;;;;6184787;23;20021;-32
2022/11/24 04:25:18;;;;;;;56.13;24.55;;;;;;;;;;6184701;23;20005;-32
2022/11/24 04:27:43;;;;;;;54.95;26.30;;;;;;;;;;6185047;23;20043;-32
2022/11/24 04:30:08;;;;;;;58.40;25.13;;;;;;;;;;6185137;23;20024;-33
2022/11/24 04:32:34;;;;;;;58.90;23.77;;;;;;;;;;6185018;23;20000;-32
2022/11/24 04:34:59;;;;;;;56.67;27.13;;;;;;;;;;6185065;23;20025;-32
2022/11/24 04:37:24;;;;;;;58.43;27.77;;;;;;;;;;6185029;23;20008;-32
2022/11/24 04:39:50;;;;;;;65.47;26.92;;;;;;;;;;6184668;23;20213;-32
2022/11/24 04:42:15;;;;;;;56.50;26.08;;;;;;;;;;6184907;23;20031;-32
2022/11/24 04:44:40;;;;;;;59.00;27.08;;;;;;;;;;6185078;23;20004;-32
2022/11/24 04:47:05;;;;;;;64.50;26.35;;;;;;;;;;6158751;23;20363;-32
2022/11/24 04:49:31;;;;;;;67.28;28.83;;;;;;;;;;6184970;23;19998;-32
2022/11/24 04:51:56;;;;;;;65.88;28.38;;;;;;;;;;6184886;23;20073;-32
2022/11/24 04:54:21;;;;;;;67.70;28.83;;;;;;;;;;6184886;23;20052;-32
2022/11/24 04:56:49;;;;;;;64.45;28.27;;;;;;;;;;6186625;23;20317;-32
2022/11/24 04:59:14;;;;;;;70.18;29.52;;;;;;;;;;6186944;23;19997;-32
2022/11/24 05:01:43;;;;;;;59.40;27.05;;;;;;;;;;6160304;23;20136;-32
2022/11/24 05:04:13;;;;;;;64.00;27.75;;;;;;;;;;6160265;23;20001;-32
2022/11/24 05:06:38;;;;;;;63.70;28.23;;;;;;;;;;6186560;23;20005;-32
2022/11/24 05:09:04;;;;;;;66.85;27.48;;;;;;;;;;6186212;23;20025;-32
2022/11/24 05:11:29;;;;;;;66.32;28.02;;;;;;;;;;6186370;23;20420;-33
2022/11/24 05:13:55;;;;;;;73.88;30.05;;;;;;;;;;6186653;23;20051;-32
2022/11/24 05:16:20;;;;;;;69.57;30.45;;;;;;;;;;6186455;23;20313;-32
2022/11/24 05:18:45;;;;;;;63.75;28.45;;;;;;;;;;6186668;23;20004;-32
2022/11/24 05:21:10;;;;;;;73.45;29.83;;;;;;;;;;6186666;23;20020;-32
2022/11/24 05:23:36;;;;;;;72.95;30.15;;;;;;;;;;6186729;23;20024;-32
2022/11/24 05:26:01;;;;;;;79.78;29.98;;;;;;;;;;6185841;23;20005;-32
2022/11/24 05:28:27;;;;;;;69.53;29.50;;;;;;;;;;6186717;23;20373;-32
2022/11/24 05:30:52;;;;;;;71.05;30.98;;;;;;;;;;6186404;23;20076;-32
2022/11/24 05:33:18;;;;;;;69.10;30.65;;;;;;;;;;6186552;23;20427;-32
2022/11/24 05:35:48;;;;;;;81.07;30.60;;;;;;;;;;6186715;23;20004;-32
2022/11/24 05:38:14;;;;;;;86.13;32.35;;;;;;;;;;6186571;23;20013;-32
2022/11/24 05:40:39;;;;;;;75.25;31.23;;;;;;;;;;6186464;23;20001;-32
2022/11/24 05:43:08;;;;;;;75.72;31.60;;;;;;;;;;6186485;23;19993;-32
2022/11/24 05:45:34;;;;;;;78.15;31.33;;;;;;;;;;6186502;23;20031;-32
2022/11/24 05:48:03;;;;;;;84.03;33.50;;;;;;;;;;6186548;23;20068;-32
2022/11/24 05:50:28;;;;;;;76.85;31.10;;;;;;;;;;6186437;23;20463;-32
2022/11/24 05:52:53;;;;;;;76.03;31.35;;;;;;;;;;6186236;23;20024;-32
2022/11/24 05:55:18;;;;;;;78.20;33.55;;;;;;;;;;6186325;23;19997;-32
2022/11/24 05:57:44;;;;;;;81.55;33.25;;;;;;;;;;6186208;23;20111;-32
2022/11/24 06:00:10;;;;;;;81.72;34.28;;;;;;;;;;6185758;23;20000;-33
2022/11/24 06:02:35;;;;;;;75.13;30.73;;;;;;;;;;6159791;23;20003;-32
2022/11/24 06:05:00;;;;;;;70.22;31.30;;;;;;;;;;6186241;23;19997;-33
2022/11/24 06:07:25;;;;;;;77.57;31.70;;;;;;;;;;6159009;23;20009;-33
2022/11/24 06:09:51;;;;;;;78.97;32.55;;;;;;;;;;6185839;23;20001;-32
2022/11/24 06:12:16;;;;;;;77.32;31.48;;;;;;;;;;6159932;23;20007;-32
2022/11/24 06:14:41;;;;;;;78.38;29.40;;;;;;;;;;6186145;23;20020;-32
2022/11/24 06:17:08;;;;;;;84.28;32.40;;;;;;;;;;6159430;23;20329;-33
2022/11/24 06:19:33;;;;;;;70.18;30.75;;;;;;;;;;6159609;23;19997;-33
2022/11/24 06:21:58;;;;;;;77.70;31.48;;;;;;;;;;6186136;23;20020;-32
2022/11/24 06:24:24;;;;;;;74.15;30.30;;;;;;;;;;6185479;23;19997;-32
2022/11/24 06:26:49;;;;;;;77.05;30.17;;;;;;;;;;6185398;23;20016;-33
2022/11/24 06:29:14;;;;;;;75.38;31.38;;;;;;;;;;6183499;23;20132;-32
2022/11/24 06:31:39;;;;;;;72.88;28.88;;;;;;;;;;6186290;23;20052;-32
2022/11/24 06:34:10;;;;;;;81.72;31.45;;;;;;;;;;6185994;23;19994;-32
2022/11/24 06:36:35;;;;;;;74.68;29.67;;;;;;;;;;6185510;23;20028;-32
2022/11/24 06:39:01;;;;;;;75.10;28.80;;;;;;;;;;6186085;23;20000;-33
2022/11/24 06:41:27;;;;;;;76.47;29.38;;;;;;;;;;6186199;23;20025;-32
2022/11/24 06:43:52;;;;;;;73.97;29.27;;;;;;;;;;6185467;23;20027;-32
2022/11/24 06:46:17;;;;;;;76.50;31.35;;;;;;;;;;6185745;23;20364;-33
2022/11/24 06:48:43;;;;;;;75.25;30.92;;;;;;;;;;6185896;23;19993;-32
2022/11/24 06:51:11;;;;;;;67.38;29.05;;;;;;;;;;6185441;23;19993;-33
2022/11/24 06:53:37;;;;;;;74.95;29.58;;;;;;;;;;6185674;23;20418;-32
2022/11/24 06:56:04;;;;;;;73.30;29.88;;;;;;;;;;6182493;23;20024;-33
2022/11/24 06:58:30;;;;;;;71.97;29.13;;;;;;;;;;6183599;23;19996;-32
2022/11/24 07:00:55;;;;;;;77.88;30.35;;;;;;;;;;6157675;23;20001;-33
2022/11/24 07:03:21;;;;;;;73.72;29.25;;;;;;;;;;6181996;23;20051;-34
2022/11/24 07:05:46;;;;;;;70.47;28.95;;;;;;;;;;6182205;23;20037;-34
2022/11/24 07:08:12;;;;;;;64.18;25.38;;;;;;;;;;6155529;23;19997;-31
2022/11/24 07:10:37;;;;;;;75.05;31.00;;;;;;;;;;6157156;23;19997;-32
2022/11/24 07:13:05;;;;;;;75.75;30.23;;;;;;;;;;6181969;23;20484;-33
2022/11/24 07:15:30;;;;;;;72.38;30.88;;;;;;;;;;6183138;23;20365;-32
2022/11/24 07:17:56;;;;;;;75.70;29.73;;;;;;;;;;6183677;23;19997;-33
2022/11/24 07:20:21;;;;;;;75.55;30.48;;;;;;;;;;6182442;23;20000;-32
2022/11/24 07:22:46;;;;;;;78.63;28.73;;;;;;;;;;6182834;23;19993;-33
2022/11/24 07:25:13;;;;;;;77.78;30.70;;;;;;;;;;6182063;23;20043;-32
2022/11/24 07:27:38;;;;;;;71.95;27.80;;;;;;;;;;6182942;23;20417;-32
2022/11/24 07:30:04;;;;;;;76.80;27.65;;;;;;;;;;6183372;23;20024;-32
2022/11/24 07:32:30;;;;;;;202.55;82.72;;;;;;;;;;6183496;23;20364;-33
2022/11/24 07:34:55;;;;;;;537.20;225.73;;;;;;;;;;6182946;23;20008;-33
2022/11/24 07:37:20;;;;;;;493.48;212.43;;;;;;;;;;6182565;23;20001;-32
2022/11/24 07:39:45;;;;;;;556.85;227.95;;;;;;;;;;6184007;23;20103;-34
2022/11/24 07:42:11;;;;;;;455.55;208.02;;;;;;;;;;6182455;23;19993;-33
2022/11/24 07:44:36;;;;;;;446.50;187.18;;;;;;;;;;6183158;23;19993;-33
2022/11/24 07:47:01;;;;;;;478.88;203.68;;;;;;;;;;6181278;23;20009;-34
2022/11/24 07:49:27;;;;;;;424.80;193.45;;;;;;;;;;6182941;23;20032;-33
2022/11/24 07:51:52;;;;;;;419.50;179.13;;;;;;;;;;6155275;23;20362;-34
2022/11/24 07:54:17;;;;;;;404.20;192.52;;;;;;;;;;6182354;23;20065;-34
2022/11/24 07:56:43;;;;;;;409.42;210.88;;;;;;;;;;6182361;23;20410;-33
2022/11/24 07:59:08;;;;;;;411.60;241.23;;;;;;;;;;6182330;23;20004;-33
2022/11/24 08:01:35;;;;;;;342.67;191.98;;;;;;;;;;6183597;23;20336;-32
2022/11/24 08:04:00;;;;;;;368.17;221.38;;;;;;;;;;6182989;23;20001;-33
2022/11/24 08:06:27;;;;;;;370.55;185.95;;;;;;;;;;6182973;23;20016;-31
2022/11/24 08:08:53;;;;;;;294.08;186.18;;;;;;;;;;6181574;23;20021;-36
2022/11/24 08:11:18;;;;;;;306.40;203.70;;;;;;;;;;6183635;23;20044;-32
2022/11/24 08:13:43;;;;;;;320.30;201.25;;;;;;;;;;6182678;23;19997;-33
2022/11/24 08:16:10;;;;;;;301.00;193.05;;;;;;;;;;6181242;23;20059;-33
2022/11/24 08:18:36;;;;;;;300.15;190.63;;;;;;;;;;6182835;23;20005;-32
2022/11/24 08:21:02;;;;;;;162.10;68.97;;;;;;;;;;6182532;23;19997;-32
2022/11/24 08:23:27;;;;;;;409.83;216.93;;;;;;;;;;6182521;23;20024;-32
2022/11/24 08:25:53;;;;;;;473.85;216.70;;;;;;;;;;6182386;23;20009;-32
2022/11/24 08:28:19;;;;;;;495.00;224.93;;;;;;;;;;6183546;23;20052;-32
2022/11/24 08:30:44;;;;;;;479.80;228.95;;;;;;;;;;6183876;23;19998;-34
2022/11/24 08:33:10;;;;;;;496.23;241.80;;;;;;;;;;6184063;23;20004;-32
2022/11/24 08:35:36;;;;;;;513.85;243.05;;;;;;;;;;6185090;23;19993;-33
2022/11/24 08:38:02;;;;;;;558.95;241.65;;;;;;;;;;6183534;23;20001;-32
2022/11/24 08:40:27;;;;;;;565.95;246.35;;;;;;;;;;6157516;23;20436;-33
2022/11/24 08:42:56;;;;;;;585.63;275.10;;;;;;;;;;6185023;23;19997;-34
2022/11/24 08:45:21;;;;;;;560.50;254.35;;;;;;;;;;6185126;23;20369;-33
2022/11/24 08:47:50;;;;;;;528.38;234.95;;;;;;;;;;6185035;23;20065;-33
2022/11/24 08:50:15;;;;;;;535.35;241.00;;;;;;;;;;6185514;23;20145;-33
2022/11/24 08:52:41;;;;;;;548.45;243.75;;;;;;;;;;6185436;23;19989;-32
2022/11/24 08:55:06;;;;;;;549.78;243.48;;;;;;;;;;6184534;23;20020;-33
2022/11/24 08:57:32;;;;;;;532.55;239.82;;;;;;;;;;6184751;23;19989;-32
2022/11/24 08:59:57;;;;;;;544.95;232.23;;;;;;;;;;6184306;23;20001;-32
2022/11/24 09:02:22;;;;;;;520.70;216.30;;;;;;;;;;6184367;23;20072;-33
2022/11/24 09:04:48;;;;;;;534.15;223.82;;;;;;;;;;6184290;23;20059;-33
2022/11/24 09:07:13;;;;;;;532.95;227.95;;;;;;;;;;6183934;23;20025;-33
2022/11/24 09:09:38;;;;;;;492.20;228.48;;;;;;;;;;6183538;23;20009;-33
2022/11/24 09:12:04;;;;;;;515.47;234.93;;;;;;;;;;6184465;23;20004;-35
2022/11/24 09:14:29;;;;;;;529.92;230.27;;;;;;;;;;6157765;23;20480;-32
2022/11/24 09:16:54;;;;;;;391.77;173.70;;;;;;;;;;6182400;23;20601;-35
2022/11/24 09:19:20;;;;;;;73.47;25.58;;;;;;;;;;6185499;23;20001;-33
2022/11/24 09:21:45;;;;;;;70.03;26.10;;;;;;;;;;6183844;23;19996;-34
2022/11/24 09:24:10;;;;;;;73.60;25.40;;;;;;;;;;6185020;23;20004;-32
2022/11/24 09:26:36;;;;;;;66.90;25.63;;;;;;;;;;6182868;23;20009;-35
2022/11/24 09:29:03;;;;;;;62.05;24.63;;;;;;;;;;6183067;23;20020;-33
2022/11/24 09:31:32;;;;;;;72.50;25.60;;;;;;;;;;6157246;23;20459;-34
2022/11/24 09:33:58;;;;;;;69.03;25.65;;;;;;;;;;6182906;23;20051;-35
2022/11/24 09:36:24;;;;;;;75.38;27.05;;;;;;;;;;6131859;23;20001;-33
2022/11/24 09:38:49;;;;;;;72.32;26.63;;;;;;;;;;6158043;23;19993;-33
2022/11/24 09:41:21;;;;;;;69.90;26.52;;;;;;;;;;6184048;23;19990;-33
2022/11/24 09:43:49;;;;;;;71.03;27.45;;;;;;;;;;6183695;23;20031;-34
2022/11/24 09:46:17;;;;;;;71.73;26.90;;;;;;;;;;6183763;23;20040;-33
2022/11/24 09:48:46;;;;;;;73.57;27.38;;;;;;;;;;6183395;23;20008;-33
2022/11/24 09:51:13;;;;;;;72.13;27.00;;;;;;;;;;6184909;23;20000;-33
2022/11/24 09:53:43;;;;;;;70.95;29.35;;;;;;;;;;6183885;23;20425;-33
2022/11/24 09:56:19;;;;;;;73.28;28.67;;;;;;;;;;6183575;23;20043;-34
2022/11/24 09:59:14;;;;;;;71.45;27.52;;;;;;;;;;6183684;23;20076;-34
2022/11/24 10:01:40;;;;;;;72.57;28.33;;;;;;;;;;6157953;23;20004;-33
2022/11/24 10:04:14;;;;;;;66.80;27.60;;;;;;;;;;6183844;23;19999;-33
2022/11/24 10:06:58;;;;;;;72.13;28.27;;;;;;;;;;6182246;23;20016;-33
2022/11/24 10:09:31;;;;;;;70.30;27.23;;;;;;;;;;6182730;23;20001;-33
2022/11/24 10:12:15;;;;;;;70.60;27.38;;;;;;;;;;6184367;23;20001;-34
2022/11/24 10:14:51;;;;;;;73.47;26.48;;;;;;;;;;6184978;23;20005;-33
2022/11/24 10:17:23;;;;;;;72.80;27.70;;;;;;;;;;6156607;23;20045;-34
2022/11/24 10:20:11;;;;;;;74.47;28.15;;;;;;;;;;6157148;23;20173;-33
2022/11/24 10:22:52;;;;;;;70.22;26.30;;;;;;;;;;6167245;23;19997;-33
2022/11/24 10:25:17;;;;;;;69.57;26.27;;;;;;;;;;6183536;23;20000;-33
2022/11/24 10:27:45;;;;;;;71.25;28.15;;;;;;;;;;6154822;23;20136;-33
2022/11/24 10:30:18;;;;;;;69.38;25.00;;;;;;;;;;6184252;23;20020;-33
2022/11/24 10:32:48;;;;;;;101.13;45.90;;;;;;;;;;6158198;23;20004;-33
2022/11/24 10:35:13;;;;;;;65.10;27.48;;;;;;;;;;6182911;23;19989;-33
2022/11/24 10:37:41;;;;;;;66.15;25.58;;;;;;;;;;6183698;23;19993;-33
2022/11/24 10:40:25;;;;;;;68.22;26.10;;;;;;;;;;6157400;23;20365;-34
2022/11/24 10:42:51;;;;;;;70.40;26.50;;;;;;;;;;6184627;23;20263;-33
2022/11/24 10:45:18;;;;;;;66.82;26.73;;;;;;;;;;6184662;23;20063;-33
2022/11/24 10:47:44;;;;;;;68.82;26.33;;;;;;;;;;6183280;23;20447;-33
2022/11/24 10:50:21;;;;;;;77.05;26.77;;;;;;;;;;6183586;23;20035;-33
2022/11/24 10:52:50;;;;;;;70.68;27.08;;;;;;;;;;6156725;23;20001;-34
2022/11/24 10:55:15;;;;;;;71.63;29.27;;;;;;;;;;6184521;23;20004;-34
2022/11/24 10:57:41;;;;;;;79.00;28.30;;;;;;;;;;6183428;23;19997;-34
2022/11/24 11:00:19;;;;;;;66.05;27.00;;;;;;;;;;6158502;23;20032;-33
2022/11/24 11:02:46;;;;;;;66.32;25.25;;;;;;;;;;6184614;23;20043;-33
2022/11/24 11:05:23;;;;;;;69.50;28.00;;;;;;;;;;6184423;23;20004;-33
2022/11/24 11:07:49;;;;;;;63.92;24.25;;;;;;;;;;6183645;23;20064;-34
2022/11/24 11:10:21;;;;;;;258.52;171.98;;;;;;;;;;6184116;23;20001;-33
2022/11/24 11:12:46;;;;;;;61.78;25.27;;;;;;;;;;6184032;23;20492;-35
2022/11/24 11:15:20;;;;;;;61.10;24.25;;;;;;;;;;6157839;23;20021;-33
2022/11/24 11:17:45;;;;;;;62.92;25.25;;;;;;;;;;6182736;23;20067;-34
2022/11/24 11:20:14;;;;;;;62.45;23.30;;;;;;;;;;6157083;23;20036;-32
2022/11/24 11:22:42;;;;;;;59.53;23.27;;;;;;;;;;6184958;23;20001;-32
2022/11/24 11:25:10;;;;;;;57.20;22.30;;;;;;;;;;6184231;23;19993;-34
2022/11/24 11:27:35;;;;;;;62.95;25.00;;;;;;;;;;6182422;23;20329;-33
2022/11/24 11:30:19;;;;;;;60.35;23.40;;;;;;;;;;6183607;23;20024;-33
2022/11/24 11:32:50;;;;;;;58.55;24.13;;;;;;;;;;6184755;23;20043;-33
2022/11/24 11:35:16;;;;;;;59.88;25.38;;;;;;;;;;6184545;23;20081;-33
2022/11/24 11:37:42;;;;;;;58.95;24.02;;;;;;;;;;6182761;23;20028;-34
2022/11/24 11:40:12;;;;;;;67.72;23.50;;;;;;;;;;6183451;23;19997;-35
2022/11/24 11:42:39;;;;;;;357.75;203.75;;;;;;;;;;6157145;23;19997;-32
2022/11/24 11:45:11;;;;;;;63.45;23.70;;;;;;;;;;6157654;23;20341;-32
2022/11/24 11:47:49;;;;;;;62.17;22.83;;;;;;;;;;6183597;23;20084;-32
2022/11/24 11:50:16;;;;;;;53.65;21.50;;;;;;;;;;6157654;23;20008;-33
2022/11/24 11:52:41;;;;;;;49.47;21.13;;;;;;;;;;6157398;23;20001;-32
2022/11/24 11:55:10;;;;;;;51.63;21.98;;;;;;;;;;6157796;23;20032;-34
2022/11/24 11:58:01;;;;;;;56.28;22.33;;;;;;;;;;6181513;23;20000;-33
2022/11/24 12:00:28;;;;;;;46.40;20.67;;;;;;;;;;6181311;23;20004;-33
2022/11/24 12:03:00;;;;;;;48.35;21.23;;;;;;;;;;6182879;23;20107;-33
2022/11/24 12:05:31;;;;;;;50.08;21.67;;;;;;;;;;6181175;23;20000;-34
2022/11/24 12:07:59;;;;;;;47.20;20.58;;;;;;;;;;6154251;23;20032;-34
2022/11/24 12:10:33;;;;;;;47.70;20.50;;;;;;;;;;6155631;23;20479;-34
2022/11/24 12:13:11;;;;;;;42.90;20.10;;;;;;;;;;6154558;23;20072;-33
2022/11/24 12:15:36;;;;;;;44.90;20.90;;;;;;;;;;6182465;23;20001;-33
2022/11/24 12:18:14;;;;;;;45.13;19.23;;;;;;;;;;6156069;23;20092;-33
2022/11/24 12:20:45;;;;;;;42.38;17.83;;;;;;;;;;6183750;23;20234;-33
2022/11/24 12:23:14;;;;;;;40.80;18.60;;;;;;;;;;6181920;23;20021;-33
2022/11/24 12:25:54;;;;;;;38.92;18.45;;;;;;;;;;6180745;23;20092;-33
2022/11/24 12:28:29;;;;;;;38.95;18.58;;;;;;;;;;6180029;23;20002;-34
2022/11/24 12:31:13;;;;;;;38.53;18.55;;;;;;;;;;6181869;23;19989;-32
2022/11/24 12:34:01;;;;;;;43.38;18.42;;;;;;;;;;6156551;23;20016;-33
2022/11/24 12:36:45;;;;;;;38.72;17.63;;;;;;;;;;6180260;23;20001;-34
2022/11/24 12:39:17;;;;;;;37.67;16.13;;;;;;;;;;6182927;23;20001;-33
2022/11/24 12:42:09;;;;;;;37.10;16.05;;;;;;;;;;6182806;23;20413;-33
2022/11/24 12:44:41;;;;;;;37.15;15.60;;;;;;;;;;6136961;23;20005;-34
2022/11/24 12:47:21;;;;;;;33.60;16.10;;;;;;;;;;6154978;23;20009;-33
2022/11/24 12:50:13;;;;;;;29.00;15.23;;;;;;;;;;6180836;23;20001;-33
2022/11/24 12:52:41;;;;;;;31.30;15.13;;;;;;;;;;6176596;23;20005;-35
2022/11/24 12:55:33;;;;;;;29.38;14.95;;;;;;;;;;6182284;23;20321;-34
2022/11/24 12:58:08;;;;;;;31.00;15.38;;;;;;;;;;6175311;23;20000;-35
2022/11/24 13:00:34;;;;;;;30.63;14.73;;;;;;;;;;6181467;23;20294;-32
2022/11/24 13:03:05;;;;;;;24.70;13.52;;;;;;;;;;6183149;23;20004;-33
2022/11/24 13:05:48;;;;;;;25.98;13.35;;;;;;;;;;6183490;23;20001;-33
2022/11/24 13:08:14;;;;;;;24.27;12.73;;;;;;;;;;6182750;23;20024;-32
2022/11/24 13:10:40;;;;;;;27.33;12.85;;;;;;;;;;6155329;23;20313;-34
2022/11/24 13:13:09;;;;;;;24.75;12.93;;;;;;;;;;6182962;23;20020;-35
2022/11/24 13:15:34;;;;;;;;;;;;;;;;;;6183965;23;19997;-34
2022/11/24 13:18:00;;;;;;;24.63;13.53;;;;;;;;;;6182366;23;20010;-34
2022/11/24 13:20:35;;;;;;;24.77;13.80;;;;;;;;;;6158251;23;20257;-34
2022/11/24 13:23:01;;;;;;;20.23;12.48;;;;;;;;;;6184400;23;19993;-34
2022/11/24 13:25:28;;;;;;;25.90;13.98;;;;;;;;;;6183119;23;19997;-34
2022/11/24 13:27:56;;;;;;;25.67;13.18;;;;;;;;;;6183795;23;20099;-34
2022/11/24 13:30:33;;;;;;;33.30;16.10;;;;;;;;;;6183711;23;20004;-33
2022/11/24 13:33:11;;;;;;;26.05;12.77;;;;;;;;;;6184606;23;19997;-33
2022/11/24 13:35:40;;;;;;;23.95;11.93;;;;;;;;;;6182931;23;20036;-33
2022/11/24 13:38:25;;;;;;;23.02;12.55;;;;;;;;;;6180954;23;20076;-33
2022/11/24 13:40:50;;;;;;;25.00;11.73;;;;;;;;;;6158558;23;19997;-33
2022/11/24 13:43:16;;;;;;;22.48;12.82;;;;;;;;;;6185789;23;20023;-33
2022/11/24 13:45:45;;;;;;;19.45;10.82;;;;;;;;;;6184583;23;20024;-33
2022/11/24 13:48:19;;;;;;;25.92;12.38;;;;;;;;;;6184373;23;20001;-33
2022/11/24 13:50:53;;;;;;;29.17;12.50;;;;;;;;;;6184857;23;20001;-33
2022/11/24 13:53:37;;;;;;;23.80;10.90;;;;;;;;;;6158591;23;20328;-33
2022/11/24 13:56:11;;;;;;;29.60;12.00;;;;;;;;;;6184780;23;20072;-33
2022/11/24 13:58:45;;;;;;;31.58;12.98;;;;;;;;;;6184918;23;19997;-34
2022/11/24 14:01:15;;;;;;;29.67;11.63;;;;;;;;;;6185784;23;19997;-34
2022/11/24 14:03:40;;;;;;;25.70;10.90;;;;;;;;;;6158013;23;19993;-33
2022/11/24 14:06:13;;;;;;;30.70;11.43;;;;;;;;;;6184785;23;20020;-34
2022/11/24 14:08:38;;;;;;;19.75;10.27;;;;;;;;;;6130415;23;20007;-34
2022/11/24 14:11:10;;;;;;;32.30;11.73;;;;;;;;;;6157197;23;20108;-32
2022/11/24 14:13:35;;;;;;;34.67;13.20;;;;;;;;;;6157714;23;20056;-32
2022/11/24 14:16:05;;;;;;;28.98;13.23;;;;;;;;;;6182186;23;20493;-33
2022/11/24 14:18:34;;;;;;;39.50;17.20;;;;;;;;;;6184026;23;20004;-34